| time (UTC) | temp F | wind direction | speed MPH | gust MPH | rain 1hr in | rain 24hr in | rain mn in | humidity % | barometer mb |
| 20260505163559 | 70 | 0.0 | 0.0 | 0.00 | 0.00 | 0.00 | 34 | 1008.3 | |
| 20260505163012 | 71 | 0.0 | 0.0 | 0.00 | 0.00 | 0.00 | 34 | 1008.2 | |
| 20260505162456 | 71 | 0.0 | 0.0 | 0.00 | 0.00 | 0.00 | 33 | 1008.2 | |
| 20260505161957 | 73 | 0.0 | 0.0 | 0.00 | 0.00 | 0.00 | 32 | 1008.2 | |
| 20260505161456 | 74 | 0.0 | 0.0 | 0.00 | 0.00 | 0.00 | 32 | 1008.0 | |
| 20260505161012 | 75 | 0.0 | 0.0 | 0.00 | 0.00 | 0.00 | 32 | 1008.4 | |
| 20260505160545 | 77 | 0.0 | 0.0 | 0.00 | 0.00 | 0.00 | 32 | 1008.4 | |
| 20260505153009 | 81 | 0.0 | 0.0 | 0.00 | 0.00 | 0.00 | 32 | 1006.7 | |
| 20260505152456 | 82 | 0.0 | 0.0 | 0.00 | 0.00 | 0.00 | 32 | 1006.6 | |
| 20260505151956 | 82 | 0.0 | 0.0 | 0.00 | 0.00 | 0.00 | 33 | 1006.4 | |
| 20260505151456 | 82 | 0.0 | 0.0 | 0.00 | 0.00 | 0.00 | 32 | 1006.4 | |
| 20260505150956 | 83 | 0.0 | 0.0 | 0.00 | 0.00 | 0.00 | 32 | 1006.3 | |
| 20260505150456 | 83 | 0.0 | 0.0 | 0.00 | 0.00 | 0.00 | 32 | 1006.2 | |
| 20260505140512 | 83 | 0.0 | 0.0 | 0.00 | 0.00 | 0.00 | 35 | 1006.5 | |
| 20260505124956 | 81 | 0.0 | 0.0 | 0.00 | 0.00 | 0.00 | 34 | 1007.4 | |
| 20260505124512 | 80 | 0.0 | 0.0 | 0.00 | 0.00 | 0.00 | 34 | 1007.4 | |
| 20260505123956 | 80 | 0.0 | 0.0 | 0.00 | 0.00 | 0.00 | 34 | 1007.3 | |
| 20260505123456 | 80 | 0.0 | 0.0 | 0.00 | 0.00 | 0.00 | 33 | 1007.5 | |
| 20260505122958 | 80 | 0.0 | 0.0 | 0.00 | 0.00 | 0.00 | 34 | 1007.6 | |
| 20260505122456 | 80 | 0.0 | 0.0 | 0.00 | 0.00 | 0.00 | 33 | 1007.6 | |
| 20260505121956 | 80 | 0.0 | 0.0 | 0.00 | 0.00 | 0.00 | 33 | 1007.7 | |
| 20260505121502 | 80 | 0.0 | 0.0 | 0.00 | 0.00 | 0.00 | 33 | 1007.8 | |
| 20260505120956 | 80 | 0.0 | 0.0 | 0.00 | 0.00 | 0.00 | 33 | 1007.8 | |
| 20260505120458 | 80 | 0.0 | 0.0 | 0.00 | 0.00 | 0.00 | 34 | 1007.8 | |
| 20260505120006 | 80 | 0.0 | 0.0 | 0.00 | 0.00 | 0.00 | 33 | 1007.7 | |
| 20260505115457 | 80 | 0.0 | 0.0 | 0.00 | 0.00 | 0.00 | 34 | 1007.9 | |
| 20260505114502 | 79 | 0.0 | 0.0 | 0.00 | 0.00 | 0.00 | 34 | 1008.0 | |
| 20260505114022 | 79 | 0.0 | 0.0 | 0.00 | 0.00 | 0.00 | 33 | 1008.1 | |
| 20260505113458 | 79 | 0.0 | 0.0 | 0.00 | 0.00 | 0.00 | 33 | 1008.2 | |
| 20260505112957 | 79 | 0.0 | 0.0 | 0.00 | 0.00 | 0.00 | 33 | 1008.2 | |
| 20260505112457 | 79 | 0.0 | 0.0 | 0.00 | 0.00 | 0.00 | 33 | 1008.1 | |
| 20260505112022 | 79 | 0.0 | 0.0 | 0.00 | 0.00 | 0.00 | 33 | 1008.2 | |
| 20260505111506 | 79 | 0.0 | 0.0 | 0.00 | 0.00 | 0.00 | 33 | 1008.3 | |
| 20260505111006 | 79 | 0.0 | 0.0 | 0.00 | 0.00 | 0.00 | 33 | 1008.5 | |
| 20260505110501 | 78 | 0.0 | 0.0 | 0.00 | 0.00 | 0.00 | 34 | 1008.5 | |
| 20260505101958 | 78 | 0.0 | 0.0 | 0.00 | 0.00 | 0.00 | 34 | 1008.8 | |
| 20260505101506 | 78 | 0.0 | 0.0 | 0.00 | 0.00 | 0.00 | 34 | 1008.7 | |
| 20260505100951 | 78 | 0.0 | 0.0 | 0.00 | 0.00 | 0.00 | 34 | 1008.4 | |
| 20260505100527 | 78 | 0.0 | 0.0 | 0.00 | 0.00 | 0.00 | 35 | 1008.2 | |
| 20260505100013 | 77 | 0.0 | 0.0 | 0.00 | 0.00 | 0.00 | 36 | 1008.3 | |
| 20260505095455 | 76 | 0.0 | 0.0 | 0.00 | 0.00 | 0.00 | 36 | 1008.3 | |
| 20260505094956 | 76 | 0.0 | 0.0 | 0.00 | 0.00 | 0.00 | 36 | 1008.3 | |
| 20260505094512 | 76 | 0.0 | 0.0 | 0.00 | 0.00 | 0.00 | 35 | 1008.3 | |
| 20260505093956 | 76 | 0.0 | 0.0 | 0.00 | 0.00 | 0.00 | 34 | 1008.4 | |
| 20260505093512 | 75 | 0.0 | 0.0 | 0.00 | 0.00 | 0.00 | 34 | 1008.4 | |
| 20260505092955 | 75 | 0.0 | 0.0 | 0.00 | 0.00 | 0.00 | 34 | 1008.5 | |
| 20260505092456 | 74 | 0.0 | 0.0 | 0.00 | 0.00 | 0.00 | 34 | 1008.4 | |
| 20260505091956 | 74 | 0.0 | 0.0 | 0.00 | 0.00 | 0.00 | 34 | 1008.6 | |
| 20260505091528 | 73 | 0.0 | 0.0 | 0.00 | 0.00 | 0.00 | 34 | 1008.7 | |
| 20260505090955 | 73 | 0.0 | 0.0 | 0.00 | 0.00 | 0.00 | 34 | 1009.0 | |
| 20260505090456 | 73 | 0.0 | 0.0 | 0.00 | 0.00 | 0.00 | 34 | 1009.3 | |
| 20260505085956 | 74 | 0.0 | 0.0 | 0.00 | 0.00 | 0.00 | 34 | 1009.3 | |
| 20260505085456 | 74 | 0.0 | 0.0 | 0.00 | 0.00 | 0.00 | 34 | 1009.2 | |
| 20260505085012 | 74 | 0.0 | 0.0 | 0.00 | 0.00 | 0.00 | 34 | 1009.0 | |
| 20260505084456 | 74 | 0.0 | 0.0 | 0.00 | 0.00 | 0.00 | 34 | 1009.2 | |
| 20260505083955 | 74 | 0.0 | 0.0 | 0.00 | 0.00 | 0.00 | 34 | 1009.2 | |
| 20260505083456 | 74 | 0.0 | 0.0 | 0.00 | 0.00 | 0.00 | 34 | 1009.1 | |
| 20260505082955 | 75 | 0.0 | 0.0 | 0.00 | 0.00 | 0.00 | 35 | 1008.7 | |
| 20260505082455 | 75 | 0.0 | 0.0 | 0.00 | 0.00 | 0.00 | 35 | 1008.6 | |
| 20260505081955 | 75 | 0.0 | 0.0 | 0.00 | 0.00 | 0.00 | 35 | 1008.6 | |
| 20260505081456 | 74 | 0.0 | 0.0 | 0.00 | 0.00 | 0.00 | 35 | 1008.6 | |
| 20260505081011 | 74 | 0.0 | 0.0 | 0.00 | 0.00 | 0.00 | 36 | 1008.7 | |
| 20260505080456 | 74 | 0.0 | 0.0 | 0.00 | 0.00 | 0.00 | 36 | 1008.6 | |
| 20260505075955 | 74 | 0.0 | 0.0 | 0.00 | 0.00 | 0.00 | 36 | 1008.5 | |
| 20260505075456 | 73 | 0.0 | 0.0 | 0.00 | 0.00 | 0.00 | 36 | 1008.7 | |
| 20260505074956 | 73 | 0.0 | 0.0 | 0.00 | 0.00 | 0.00 | 36 | 1008.8 | |
| 20260505074455 | 72 | 0.0 | 0.0 | 0.00 | 0.00 | 0.00 | 36 | 1008.9 | |
| 20260505073955 | 72 | 0.0 | 0.0 | 0.00 | 0.00 | 0.00 | 36 | 1009.0 | |
| 20260505073455 | 72 | 0.0 | 0.0 | 0.00 | 0.00 | 0.00 | 35 | 1009.3 | |
| 20260505072955 | 71 | 0.0 | 0.0 | 0.00 | 0.00 | 0.00 | 35 | 1009.2 | |
| 20260505072511 | 71 | 0.0 | 0.0 | 0.00 | 0.00 | 0.00 | 35 | 1009.3 | |
| 20260505071955 | 71 | 0.0 | 0.0 | 0.00 | 0.00 | 0.00 | 35 | 1009.4 | |
| 20260505071456 | 70 | 0.0 | 0.0 | 0.00 | 0.00 | 0.00 | 35 | 1009.2 | |
| 20260505070956 | 70 | 0.0 | 0.0 | 0.00 | 0.00 | 0.00 | 34 | 1009.2 | |
| 20260505070455 | 70 | 0.0 | 0.0 | 0.00 | 0.00 | 0.00 | 35 | 1009.3 | |
| 20260505065955 | 69 | 0.0 | 0.0 | 0.00 | 0.00 | 0.00 | 35 | 1009.3 | |
| 20260505065455 | 69 | 0.0 | 0.0 | 0.00 | 0.00 | 0.00 | 36 | 1009.3 | |
| 20260505065011 | 68 | 0.0 | 0.0 | 0.00 | 0.00 | 0.00 | 37 | 1009.3 | |
| 20260505064456 | 67 | 0.0 | 0.0 | 0.00 | 0.00 | 0.00 | 37 | 1009.3 | |
| 20260505063956 | 67 | 0.0 | 0.0 | 0.00 | 0.00 | 0.00 | 37 | 1009.3 | |
| 20260505063455 | 66 | 0.0 | 0.0 | 0.00 | 0.00 | 0.00 | 37 | 1009.5 | |
| 20260505062955 | 66 | 0.0 | 0.0 | 0.00 | 0.00 | 0.00 | 36 | 1009.5 | |
| 20260505062455 | 65 | 0.0 | 0.0 | 0.00 | 0.00 | 0.00 | 36 | 1009.5 | |
| 20260505061955 | 65 | 0.0 | 0.0 | 0.00 | 0.00 | 0.00 | 35 | 1009.6 | |
| 20260505061455 | 65 | 0.0 | 0.0 | 0.00 | 0.00 | 0.00 | 35 | 1009.6 | |
| 20260505060956 | 65 | 0.0 | 0.0 | 0.00 | 0.00 | 0.00 | 35 | 1009.6 | |
| 20260505060455 | 65 | 0.0 | 0.0 | 0.00 | 0.00 | 0.00 | 34 | 1009.7 | |
| 20260505055955 | 65 | 0.0 | 0.0 | 0.00 | 0.00 | 0.00 | 34 | 1009.7 | |
| 20260505055455 | 65 | 0.0 | 0.0 | 0.00 | 0.00 | 0.00 | 33 | 1009.8 | |
| 20260505054956 | 64 | 0.0 | 0.0 | 0.00 | 0.00 | 0.00 | 33 | 1009.8 | |
| 20260505054455 | 64 | 0.0 | 0.0 | 0.00 | 0.00 | 0.00 | 33 | 1009.7 | |
| 20260505053956 | 64 | 0.0 | 0.0 | 0.00 | 0.00 | 0.00 | 33 | 1009.8 | |
| 20260505053455 | 64 | 0.0 | 0.0 | 0.00 | 0.00 | 0.00 | 33 | 1009.6 | |
| 20260505052955 | 64 | 0.0 | 0.0 | 0.00 | 0.00 | 0.00 | 33 | 1009.5 | |
| 20260505052455 | 64 | 0.0 | 0.0 | 0.00 | 0.00 | 0.00 | 33 | 1009.6 | |
| 20260505051955 | 64 | 0.0 | 0.0 | 0.00 | 0.00 | 0.00 | 33 | 1009.6 | |
| 20260505051455 | 64 | 0.0 | 0.0 | 0.00 | 0.00 | 0.00 | 33 | 1009.7 | |
| 20260505050955 | 64 | 0.0 | 0.0 | 0.00 | 0.00 | 0.00 | 33 | 1009.6 | |
| 20260505050455 | 64 | 0.0 | 0.0 | 0.00 | 0.00 | 0.00 | 33 | 1009.7 | |
| 20260505041455 | 65 | 0.0 | 0.0 | 0.00 | 0.00 | 0.00 | 33 | 1009.8 | |
| 20260505040955 | 65 | 0.0 | 0.0 | 0.00 | 0.00 | 0.00 | 33 | 1009.7 | |
| 20260505040455 | 65 | 0.0 | 0.0 | 0.00 | 0.00 | 0.00 | 33 | 1009.8 | |
| 20260505035955 | 65 | 0.0 | 0.0 | 0.00 | 0.00 | 0.00 | 34 | 1009.7 | |
| 20260505035455 | 65 | 0.0 | 0.0 | 0.00 | 0.00 | 0.00 | 33 | 1009.7 | |
| 20260505034955 | 65 | 0.0 | 0.0 | 0.00 | 0.00 | 0.00 | 33 | 1009.7 | |
| 20260505034456 | 65 | 0.0 | 0.0 | 0.00 | 0.00 | 0.00 | 33 | 1009.6 | |
| 20260505033956 | 65 | 0.0 | 0.0 | 0.00 | 0.00 | 0.00 | 33 | 1009.6 | |
| 20260505033455 | 65 | 0.0 | 0.0 | 0.00 | 0.00 | 0.00 | 33 | 1009.5 | |
| 20260505032955 | 65 | 0.0 | 0.0 | 0.00 | 0.00 | 0.00 | 33 | 1009.4 | |
| 20260505032510 | 65 | 0.0 | 0.0 | 0.00 | 0.00 | 0.00 | 33 | 1009.4 | |
| 20260505031955 | 65 | 0.0 | 0.0 | 0.00 | 0.00 | 0.00 | 33 | 1009.4 | |
| 20260505031455 | 65 | 0.0 | 0.0 | 0.00 | 0.00 | 0.00 | 33 | 1009.4 | |
| 20260505030955 | 65 | 0.0 | 0.0 | 0.00 | 0.00 | 0.00 | 33 | 1009.4 | |
| 20260505030455 | 66 | 0.0 | 0.0 | 0.00 | 0.00 | 0.00 | 33 | 1009.4 | |
| 20260505025955 | 66 | 0.0 | 0.0 | 0.00 | 0.00 | 0.00 | 33 | 1009.5 | |
| 20260505025455 | 66 | 0.0 | 0.0 | 0.00 | 0.00 | 0.00 | 33 | 1009.5 | |
| 20260505024955 | 66 | 0.0 | 0.0 | 0.00 | 0.00 | 0.00 | 33 | 1009.5 | |
| 20260505024455 | 66 | 0.0 | 0.0 | 0.00 | 0.00 | 0.00 | 34 | 1009.5 | |
| 20260505024011 | 66 | 0.0 | 0.0 | 0.00 | 0.00 | 0.00 | 33 | 1009.4 | |
| 20260505023511 | 66 | 0.0 | 0.0 | 0.00 | 0.00 | 0.00 | 33 | 1009.5 | |
| 20260505022955 | 66 | 0.0 | 0.0 | 0.00 | 0.00 | 0.00 | 33 | 1009.5 | |
| 20260505022455 | 66 | 0.0 | 0.0 | 0.00 | 0.00 | 0.00 | 33 | 1009.6 | |
| 20260505021956 | 66 | 0.0 | 0.0 | 0.00 | 0.00 | 0.00 | 34 | 1009.5 | |
| 20260505021511 | 66 | 0.0 | 0.0 | 0.00 | 0.00 | 0.00 | 33 | 1009.4 | |
| 20260505020955 | 66 | 0.0 | 0.0 | 0.00 | 0.00 | 0.00 | 33 | 1009.3 | |
| 20260505020455 | 66 | 0.0 | 0.0 | 0.00 | 0.00 | 0.00 | 33 | 1009.3 | |
| 20260505015955 | 66 | 0.0 | 0.0 | 0.00 | 0.00 | 0.00 | 33 | 1009.4 | |
| 20260505015455 | 66 | 0.0 | 0.0 | 0.00 | 0.00 | 0.00 | 33 | 1009.3 | |
| 20260505014956 | 66 | 0.0 | 0.0 | 0.00 | 0.00 | 0.00 | 33 | 1009.3 | |
| 20260505014455 | 67 | 0.0 | 0.0 | 0.00 | 0.00 | 0.00 | 33 | 1009.4 | |
| 20260505013955 | 67 | 0.0 | 0.0 | 0.00 | 0.00 | 0.00 | 33 | 1009.3 | |
| 20260505013455 | 67 | 0.0 | 0.0 | 0.00 | 0.00 | 0.00 | 33 | 1009.4 | |
| 20260505013011 | 67 | 0.0 | 0.0 | 0.00 | 0.00 | 0.00 | 33 | 1009.4 | |
| 20260505012455 | 67 | 0.0 | 0.0 | 0.00 | 0.00 | 0.00 | 33 | 1009.4 | |
| 20260505011955 | 67 | 0.0 | 0.0 | 0.00 | 0.00 | 0.00 | 33 | 1009.4 | |
| 20260505011455 | 67 | 0.0 | 0.0 | 0.00 | 0.00 | 0.00 | 33 | 1009.5 | |
| 20260505011010 | 67 | 0.0 | 0.0 | 0.00 | 0.00 | 0.00 | 33 | 1009.5 | |
| 20260505010455 | 67 | 0.0 | 0.0 | 0.00 | 0.00 | 0.00 | 33 | 1009.4 | |
| 20260505010026 | 67 | 0.0 | 0.0 | 0.00 | 0.00 | 0.00 | 33 | 1009.5 | |
| 20260505005455 | 67 | 0.0 | 0.0 | 0.00 | 0.00 | 0.00 | 33 | 1009.5 | |
| 20260505005011 | 67 | 0.0 | 0.0 | 0.00 | 0.00 | 0.00 | 33 | 1009.5 | |
| 20260505004511 | 68 | 0.0 | 0.0 | 0.00 | 0.00 | 0.00 | 33 | 1009.4 | |
| 20260505003955 | 68 | 0.0 | 0.0 | 0.00 | 0.00 | 0.00 | 33 | 1009.4 | |
| 20260505003455 | 68 | 0.0 | 0.0 | 0.00 | 0.00 | 0.00 | 33 | 1009.4 | |
| 20260505002955 | 68 | 0.0 | 0.0 | 0.00 | 0.00 | 0.00 | 33 | 1009.5 | |
| 20260505002455 | 68 | 0.0 | 0.0 | 0.00 | 0.00 | 0.00 | 33 | 1009.5 | |
| 20260505001956 | 68 | 0.0 | 0.0 | 0.00 | 0.00 | 0.00 | 33 | 1009.4 | |
| 20260505001455 | 68 | 0.0 | 0.0 | 0.00 | 0.00 | 0.00 | 33 | 1009.4 | |
| 20260505000955 | 68 | 0.0 | 0.0 | 0.00 | 0.00 | 0.00 | 33 | 1009.3 | |
| 20260505000455 | 68 | 0.0 | 0.0 | 0.00 | 0.00 | 0.00 | 33 | 1009.3 | |
| 20260505000026 | 68 | 0.0 | 0.0 | 0.00 | 0.00 | 0.00 | 33 | 1009.4 | |
| 20260504235455 | 68 | 0.0 | 0.0 | 0.00 | 0.00 | 0.00 | 33 | 1009.3 | |
| 20260504234954 | 68 | 0.0 | 0.0 | 0.00 | 0.00 | 0.00 | 33 | 1009.4 | |
| 20260504234455 | 68 | 0.0 | 0.0 | 0.00 | 0.00 | 0.00 | 33 | 1009.5 | |
| 20260504233955 | 69 | 0.0 | 0.0 | 0.00 | 0.00 | 0.00 | 33 | 1009.5 | |
| 20260504233510 | 69 | 0.0 | 0.0 | 0.00 | 0.00 | 0.00 | 33 | 1009.5 | |
| 20260504232955 | 69 | 0.0 | 0.0 | 0.00 | 0.00 | 0.00 | 33 | 1009.5 | |
| 20260504232454 | 69 | 0.0 | 0.0 | 0.00 | 0.00 | 0.00 | 33 | 1009.4 | |
| 20260504231955 | 69 | 0.0 | 0.0 | 0.00 | 0.00 | 0.00 | 33 | 1009.4 | |
| 20260504231455 | 69 | 0.0 | 0.0 | 0.00 | 0.00 | 0.00 | 33 | 1009.4 | |
| 20260504230955 | 69 | 0.0 | 0.0 | 0.00 | 0.00 | 0.00 | 33 | 1009.5 | |
| 20260504230455 | 69 | 0.0 | 0.0 | 0.00 | 0.00 | 0.00 | 33 | 1009.4 | |
| 20260504225955 | 70 | 0.0 | 0.0 | 0.00 | 0.00 | 0.00 | 33 | 1009.3 | |
| 20260504225455 | 70 | 0.0 | 0.0 | 0.00 | 0.00 | 0.00 | 33 | 1009.3 | |
| 20260504225011 | 70 | 0.0 | 0.0 | 0.00 | 0.00 | 0.00 | 33 | 1009.3 | |
| 20260504224455 | 70 | 0.0 | 0.0 | 0.00 | 0.00 | 0.00 | 33 | 1009.2 | |
| 20260504223955 | 70 | 0.0 | 0.0 | 0.00 | 0.00 | 0.00 | 33 | 1009.2 | |
| 20260504223455 | 70 | 0.0 | 0.0 | 0.00 | 0.00 | 0.00 | 33 | 1009.1 | |
| 20260504223011 | 70 | 0.0 | 0.0 | 0.00 | 0.00 | 0.00 | 33 | 1009.1 | |
| 20260504222455 | 71 | 0.0 | 0.0 | 0.00 | 0.00 | 0.00 | 33 | 1009.1 | |
| 20260504221955 | 71 | 0.0 | 0.0 | 0.00 | 0.00 | 0.00 | 33 | 1009.1 | |
| 20260504221455 | 71 | 0.0 | 0.0 | 0.00 | 0.00 | 0.00 | 33 | 1009.0 | |
| 20260504220955 | 71 | 0.0 | 0.0 | 0.00 | 0.00 | 0.00 | 33 | 1009.0 | |
| 20260504220454 | 71 | 0.0 | 0.0 | 0.00 | 0.00 | 0.00 | 33 | 1009.1 | |
| 20260504215954 | 71 | 0.0 | 0.0 | 0.00 | 0.00 | 0.00 | 33 | 1009.1 | |
| 20260504215454 | 71 | 0.0 | 0.0 | 0.00 | 0.00 | 0.00 | 33 | 1009.1 | |
| 20260504214954 | 71 | 0.0 | 0.0 | 0.00 | 0.00 | 0.00 | 33 | 1009.1 | |
| 20260504214455 | 72 | 0.0 | 0.0 | 0.00 | 0.00 | 0.00 | 33 | 1009.0 | |
| 20260504213954 | 72 | 0.0 | 0.0 | 0.00 | 0.00 | 0.00 | 33 | 1009.0 | |
| 20260504213455 | 72 | 0.0 | 0.0 | 0.00 | 0.00 | 0.00 | 33 | 1008.9 | |
| 20260504212956 | 72 | 0.0 | 0.0 | 0.00 | 0.00 | 0.00 | 33 | 1008.9 | |
| 20260504212543 | 72 | 0.0 | 0.0 | 0.00 | 0.00 | 0.00 | 33 | 1008.9 | |
| 20260504211955 | 72 | 0.0 | 0.0 | 0.00 | 0.00 | 0.00 | 33 | 1008.8 | |
| 20260504211455 | 72 | 0.0 | 0.0 | 0.00 | 0.00 | 0.00 | 33 | 1008.8 | |
| 20260504211027 | 73 | 0.0 | 0.0 | 0.00 | 0.00 | 0.00 | 33 | 1008.8 | |
| 20260504210455 | 73 | 0.0 | 0.0 | 0.00 | 0.00 | 0.00 | 33 | 1008.8 | |
| 20260504205954 | 73 | 0.0 | 0.0 | 0.00 | 0.00 | 0.00 | 33 | 1008.9 | |
| 20260504205455 | 73 | 0.0 | 0.0 | 0.00 | 0.00 | 0.00 | 32 | 1008.9 | |
| 20260504204955 | 73 | 0.0 | 0.0 | 0.00 | 0.00 | 0.00 | 33 | 1009.0 | |
| 20260504204455 | 74 | 0.0 | 0.0 | 0.00 | 0.00 | 0.00 | 33 | 1008.9 | |
| 20260504203955 | 74 | 0.0 | 0.0 | 0.00 | 0.00 | 0.00 | 33 | 1008.9 | |
| 20260504203455 | 74 | 0.0 | 0.0 | 0.00 | 0.00 | 0.00 | 33 | 1009.1 | |
| 20260504202954 | 75 | 0.0 | 0.0 | 0.00 | 0.00 | 0.00 | 33 | 1009.4 | |
| 20260504202454 | 75 | 0.0 | 0.0 | 0.00 | 0.00 | 0.00 | 33 | 1009.2 | |
| 20260504201954 | 75 | 0.0 | 0.0 | 0.00 | 0.00 | 0.00 | 33 | 1009.5 | |
| 20260504201454 | 75 | 0.0 | 0.0 | 0.00 | 0.00 | 0.00 | 33 | 1009.4 | |
| 20260504200954 | 75 | 0.0 | 0.0 | 0.00 | 0.00 | 0.00 | 34 | 1009.3 | |
| 20260504200456 | 74 | 0.0 | 0.0 | 0.00 | 0.00 | 0.00 | 34 | 1009.3 | |
| 20260504195954 | 74 | 0.0 | 0.0 | 0.00 | 0.00 | 0.00 | 34 | 1009.3 | |
| 20260504195455 | 75 | 0.0 | 0.0 | 0.00 | 0.00 | 0.00 | 34 | 1009.3 | |
| 20260504195010 | 75 | 0.0 | 0.0 | 0.00 | 0.00 | 0.00 | 34 | 1009.1 | |
| 20260504194526 | 74 | 0.0 | 0.0 | 0.00 | 0.00 | 0.00 | 35 | 1008.9 | |
| 20260504193955 | 75 | 0.0 | 0.0 | 0.00 | 0.00 | 0.00 | 35 | 1008.9 | |
| 20260504193454 | 75 | 0.0 | 0.0 | 0.00 | 0.00 | 0.00 | 35 | 1008.6 | |
| 20260504193010 | 75 | 0.0 | 0.0 | 0.00 | 0.00 | 0.00 | 34 | 1008.4 | |
| 20260504192454 | 75 | 0.0 | 0.0 | 0.00 | 0.00 | 0.00 | 34 | 1008.6 | |
| 20260504191955 | 75 | 0.0 | 0.0 | 0.00 | 0.00 | 0.00 | 34 | 1008.5 | |
| 20260504191455 | 75 | 0.0 | 0.0 | 0.00 | 0.00 | 0.00 | 34 | 1008.3 | |
| 20260504190955 | 75 | 0.0 | 0.0 | 0.00 | 0.00 | 0.00 | 35 | 1008.4 | |
| 20260504190454 | 76 | 0.0 | 0.0 | 0.00 | 0.00 | 0.00 | 34 | 1008.3 | |
| 20260504185954 | 76 | 0.0 | 0.0 | 0.00 | 0.00 | 0.00 | 34 | 1008.2 | |
| 20260504185454 | 76 | 0.0 | 0.0 | 0.00 | 0.00 | 0.00 | 34 | 1008.3 | |
| 20260504184954 | 76 | 0.0 | 0.0 | 0.00 | 0.00 | 0.00 | 34 | 1008.2 | |
| 20260504184454 | 76 | 0.0 | 0.0 | 0.00 | 0.00 | 0.00 | 34 | 1008.2 | |
| 20260504183955 | 76 | 0.0 | 0.0 | 0.00 | 0.00 | 0.00 | 34 | 1008.1 | |
| 20260504183455 | 77 | 0.0 | 0.0 | 0.00 | 0.00 | 0.00 | 34 | 1008.0 | |
| 20260504182954 | 77 | 0.0 | 0.0 | 0.00 | 0.00 | 0.00 | 34 | 1007.9 | |
| 20260504182455 | 77 | 0.0 | 0.0 | 0.00 | 0.00 | 0.00 | 33 | 1007.8 | |
| 20260504182010 | 77 | 0.0 | 0.0 | 0.00 | 0.00 | 0.00 | 33 | 1007.6 | |
| 20260504181454 | 78 | 0.0 | 0.0 | 0.00 | 0.00 | 0.00 | 33 | 1007.5 | |
| 20260504180955 | 78 | 0.0 | 0.0 | 0.00 | 0.00 | 0.00 | 33 | 1007.3 | |
| 20260504180455 | 78 | 0.0 | 0.0 | 0.00 | 0.00 | 0.00 | 33 | 1007.4 | |
| 20260504175954 | 78 | 0.0 | 0.0 | 0.00 | 0.00 | 0.00 | 33 | 1007.3 | |
| 20260504175454 | 78 | 0.0 | 0.0 | 0.00 | 0.00 | 0.00 | 33 | 1007.4 | |
| 20260504174954 | 79 | 0.0 | 0.0 | 0.00 | 0.00 | 0.00 | 33 | 1007.2 | |
| 20260504174455 | 79 | 0.0 | 0.0 | 0.00 | 0.00 | 0.00 | 33 | 1007.3 | |
| 20260504173955 | 79 | 0.0 | 0.0 | 0.00 | 0.00 | 0.00 | 34 | 1007.5 | |
| 20260504173454 | 79 | 0.0 | 0.0 | 0.00 | 0.00 | 0.00 | 33 | 1007.3 | |
| 20260504172955 | 79 | 0.0 | 0.0 | 0.00 | 0.00 | 0.00 | 33 | 1007.4 | |
| 20260504172454 | 79 | 0.0 | 0.0 | 0.00 | 0.00 | 0.00 | 33 | 1007.5 | |
| 20260504171955 | 79 | 0.0 | 0.0 | 0.00 | 0.00 | 0.00 | 33 | 1007.6 | |
| 20260504171454 | 79 | 0.0 | 0.0 | 0.00 | 0.00 | 0.00 | 34 | 1007.5 | |
| 20260504171011 | 79 | 0.0 | 0.0 | 0.00 | 0.00 | 0.00 | 34 | 1007.5 | |
| 20260504170454 | 79 | 0.0 | 0.0 | 0.00 | 0.00 | 0.00 | 34 | 1007.6 |